Accueil
METAR-TAF:

METAR-TAF

Aéroports :

Memmingen, Allemagne

latitude: 47-59-33N, longitude: 10-14-37E, altitude: 633 m

Observation

Le bulletin a été fait il y a 18 minutes, à 04:20 UTC
Vent 6 kt de sud/sud-ouest
Température 0°C
Humidité 74%
Pression 1013 hPa
Visibilité 10 km ou plus

METAR: EDJA 030420Z AUTO 20006KT 9999 // NCD M00/M04 Q1013

Heure: 06:38 (04:38 UTC)

Prévision

Le bulletin a été fait il y a 2 heures et 38 minutes, à 02:00 UTC
Prévision valable du 03 à 03 UTC au 03 à 12 UTC
Vent 3 kt de sud-ouest
Visibilité 10 km ou plus
pas de nuages en-dessous de 1500 mètres et pas de cumulonimbus.
Evoluant progressivement
du 03 à 07 UTC au 03 à 09 UTC
Vent 8 kt de ouest

TAF: EDJA 030200Z 0303/0312 23003KT CAVOK BECMG 0307/0309 26008KT

Observations et prévisions météorologiques de plus de 4000 aéroports (messages METAR et TAF).

Les stations disponibles sont représentées par des disques jaunes et rouges sur la carte.

Passer la souris dessus pour voir le nom de la station.

Cliquer dessus pour voir les observations et prévisions météorologiques.

Pour changer de carte: cliquez sur les boutons verts avec une croix noire pour zoomer, sur le bouton vert avec un tiret pour effectuer un zoom arrière, ou sur les flèches vertes pour les cartes adjacentes.


METAR-TAF: